createdAt,value
2022-10-09T00:00:25.564Z,101522.47
2022-10-09T00:02:52.275Z,101516.69
2022-10-09T00:05:19.024Z,101525.06
2022-10-09T00:07:45.893Z,101519.63
2022-10-09T00:10:12.438Z,101527.31
2022-10-09T00:12:38.946Z,101526.91
2022-10-09T00:15:05.917Z,101538.84
2022-10-09T00:17:32.483Z,101535.59
2022-10-09T00:19:59.027Z,101528.59
2022-10-09T00:22:25.545Z,101532.63
2022-10-09T00:24:52.210Z,101538.44
2022-10-09T00:27:19.130Z,101538.44
2022-10-09T00:29:45.656Z,101533.66
2022-10-09T00:32:12.178Z,101524.53
2022-10-09T00:34:39.116Z,101532.28
2022-10-09T00:37:06.014Z,101536.72
2022-10-09T00:39:32.530Z,101526.41
2022-10-09T00:41:59.217Z,101532.63
2022-10-09T00:44:59.806Z,101538.84
2022-10-09T00:47:40.662Z,101538.88
2022-10-09T00:50:15.482Z,101533.63
2022-10-09T00:52:43.872Z,101538.59
2022-10-09T00:55:12.781Z,101538.72
2022-10-09T00:57:41.640Z,101548.47
2022-10-09T01:00:11.165Z,101544.38
2022-10-09T01:02:38.809Z,101549.91
2022-10-09T01:05:06.820Z,101544.81
2022-10-09T01:07:46.997Z,101555.97
2022-10-09T01:10:32.016Z,101557.53
2022-10-09T01:13:07.710Z,101551.13
2022-10-09T01:15:45.167Z,101542.53
2022-10-09T01:18:30.857Z,101544.22
2022-10-09T01:21:08.610Z,101544.59
2022-10-09T01:23:59.358Z,101544.16
2022-10-09T01:26:32.685Z,101544.16
2022-10-09T01:29:04.954Z,101545.69
2022-10-09T01:31:35.871Z,101544.25
2022-10-09T01:34:03.572Z,101542.38
2022-10-09T01:36:31.145Z,101539.81
2022-10-09T01:39:01.912Z,101544.88
2022-10-09T01:41:29.570Z,101543.19
2022-10-09T01:43:56.122Z,101542.75
2022-10-09T01:46:32.989Z,101537.78
2022-10-09T01:49:22.768Z,101542.63
2022-10-09T01:52:27.043Z,101538.06
2022-10-09T01:55:18.186Z,101532.53
2022-10-09T01:57:59.980Z,101535.13
2022-10-09T02:00:28.291Z,101536.38
2022-10-09T02:02:56.288Z,101539.06
2022-10-09T02:05:27.878Z,101543.84
2022-10-09T02:07:56.082Z,101541.06
2022-10-09T02:10:23.778Z,101551.91
2022-10-09T02:12:54.779Z,101543.03
2022-10-09T02:15:26.729Z,101546.13
2022-10-09T02:17:58.862Z,101549.78
2022-10-09T02:20:30.988Z,101545.69
2022-10-09T02:23:02.048Z,101549.53
2022-10-09T02:25:29.220Z,101547.97
2022-10-09T02:27:56.915Z,101547.97
2022-10-09T02:30:26.771Z,101542.16
2022-10-09T02:32:53.895Z,101557.44
2022-10-09T02:35:21.402Z,101550.41
2022-10-09T02:37:49.077Z,101549.28
2022-10-09T02:40:16.105Z,101549.28
2022-10-09T02:42:42.634Z,101548.00
2022-10-09T02:45:09.784Z,101545.50
2022-10-09T02:47:36.347Z,101551.28
2022-10-09T02:50:02.978Z,101552.13
2022-10-09T02:52:29.498Z,101546.50
2022-10-09T02:54:56.045Z,101547.72
2022-10-09T02:57:22.555Z,101550.94
2022-10-09T02:59:49.599Z,101551.91
2022-10-09T03:02:16.241Z,101557.69
2022-10-09T03:04:42.829Z,101563.28
2022-10-09T03:07:09.418Z,101556.00
2022-10-09T03:09:36.154Z,101563.06
2022-10-09T03:12:02.881Z,101563.38
2022-10-09T03:14:29.774Z,101571.22
2022-10-09T03:16:56.285Z,101568.09
2022-10-09T03:19:23.108Z,101573.94
2022-10-09T03:21:49.597Z,101562.97
2022-10-09T03:24:16.125Z,101573.66
2022-10-09T03:26:42.682Z,101568.84
2022-10-09T03:29:09.208Z,101566.97
2022-10-09T03:31:53.045Z,101567.41
2022-10-09T03:34:21.208Z,101568.78
2022-10-09T03:36:47.781Z,101569.31
2022-10-09T03:39:14.398Z,101567.66
2022-10-09T03:41:40.918Z,101566.50
2022-10-09T03:44:07.453Z,101569.81
2022-10-09T03:46:34.058Z,101567.94
2022-10-09T03:49:00.878Z,101568.47
2022-10-09T03:51:27.424Z,101569.66
2022-10-09T03:53:54.238Z,101573.34
2022-10-09T03:56:20.780Z,101575.94
2022-10-09T03:58:47.317Z,101581.03
2022-10-09T04:01:13.984Z,101579.75
2022-10-09T04:03:40.593Z,101575.25
2022-10-09T04:06:07.214Z,101582.19
2022-10-09T04:08:35.284Z,101583.34
2022-10-09T04:11:01.861Z,101581.59
2022-10-09T04:13:28.379Z,101590.22
2022-10-09T04:15:55.739Z,101591.13
2022-10-09T04:18:22.664Z,101591.09
2022-10-09T04:20:52.981Z,101595.88
2022-10-09T04:23:24.621Z,101595.47
2022-10-09T04:25:56.199Z,101600.16
2022-10-09T04:28:23.453Z,101594.72
2022-10-09T04:30:51.736Z,101592.41
2022-10-09T04:33:18.963Z,101594.22
2022-10-09T04:35:49.304Z,101601.16
2022-10-09T04:38:16.187Z,101604.44
2022-10-09T04:40:42.706Z,101602.22
2022-10-09T04:43:09.292Z,101600.69
2022-10-09T04:45:40.341Z,101603.09
2022-10-09T04:48:06.869Z,101598.13
2022-10-09T04:50:33.396Z,101595.47
2022-10-09T04:52:59.948Z,101595.78
2022-10-09T04:55:26.572Z,101594.22
2022-10-09T04:57:53.887Z,101597.41
2022-10-09T05:00:20.382Z,101592.94
2022-10-09T05:02:47.565Z,101595.91
2022-10-09T05:05:14.328Z,101602.38
2022-10-09T05:07:41.256Z,101602.13
2022-10-09T05:10:08.327Z,101596.31
2022-10-09T05:12:34.850Z,101596.47
2022-10-09T05:15:01.995Z,101593.78
2022-10-09T05:17:28.575Z,101589.00
2022-10-09T05:19:55.186Z,101592.41
2022-10-09T05:22:21.706Z,101592.13
2022-10-09T05:24:48.551Z,101589.41
2022-10-09T05:27:15.085Z,101587.84
2022-10-09T05:29:41.768Z,101592.06
2022-10-09T05:32:08.314Z,101593.06
2022-10-09T05:34:35.115Z,101594.03
2022-10-09T05:37:01.658Z,101587.50
2022-10-09T05:39:28.201Z,101591.38
2022-10-09T05:41:54.773Z,101592.88
2022-10-09T05:44:21.312Z,101594.06
2022-10-09T05:46:48.094Z,101591.03
2022-10-09T05:49:14.630Z,101592.22
2022-10-09T05:51:44.035Z,101597.06
2022-10-09T05:54:15.494Z,101593.22
2022-10-09T05:56:45.094Z,101595.19
2022-10-09T05:59:15.036Z,101605.66
2022-10-09T06:01:43.634Z,101607.72
2022-10-09T06:04:15.325Z,101609.41
2022-10-09T06:06:42.278Z,101606.59
2022-10-09T06:09:10.935Z,101611.53
2022-10-09T06:11:39.558Z,101616.63
2022-10-09T06:14:08.667Z,101610.41
2022-10-09T06:16:40.289Z,101619.47
2022-10-09T06:19:07.756Z,101623.91
2022-10-09T06:21:34.569Z,101617.66
2022-10-09T06:24:02.443Z,101616.91
2022-10-09T06:26:30.120Z,101621.69
2022-10-09T06:29:01.564Z,101620.03
2022-10-09T06:31:30.519Z,101620.16
2022-10-09T06:33:59.780Z,101629.50
2022-10-09T06:36:28.748Z,101637.56
2022-10-09T06:38:55.991Z,101637.50
2022-10-09T06:41:24.980Z,101636.31
2022-10-09T06:43:54.219Z,101650.75
2022-10-09T06:46:23.908Z,101659.22
2022-10-09T06:48:50.715Z,101662.47
2022-10-09T06:51:20.595Z,101656.41
2022-10-09T06:53:52.675Z,101671.50
2022-10-09T06:56:21.797Z,101671.44
2022-10-09T06:58:48.652Z,101672.06
2022-10-09T07:01:21.459Z,101676.06
2022-10-09T07:03:55.971Z,101670.16
2022-10-09T07:06:25.367Z,101670.56
2022-10-09T07:09:01.745Z,101678.06
2022-10-09T07:11:31.875Z,101675.41
2022-10-09T07:14:00.727Z,101681.59
2022-10-09T07:16:37.523Z,101680.22
2022-10-09T07:19:07.869Z,101676.19
2022-10-09T07:21:35.683Z,101679.75
2022-10-09T07:24:03.974Z,101672.31
2022-10-09T07:26:32.772Z,101668.41
2022-10-09T07:28:59.793Z,101671.91
2022-10-09T07:31:26.392Z,101674.94
2022-10-09T07:33:55.255Z,101678.53
2022-10-09T07:36:22.817Z,101678.28
2022-10-09T07:38:51.352Z,101685.03
2022-10-09T07:41:18.785Z,101675.00
2022-10-09T07:43:45.675Z,101685.81
2022-10-09T07:46:17.636Z,101678.78
2022-10-09T07:48:44.957Z,101682.56
2022-10-09T07:51:15.466Z,101692.84
2022-10-09T07:53:42.377Z,101694.47
2022-10-09T07:56:21.150Z,101693.31
2022-10-09T07:58:55.266Z,101694.88
2022-10-09T08:01:23.574Z,101706.09
2022-10-09T08:03:50.762Z,101689.97
2022-10-09T08:06:18.568Z,101695.91
2022-10-09T08:08:49.682Z,101699.38
2022-10-09T08:11:18.145Z,101701.59
2022-10-09T08:13:45.937Z,101696.69
2022-10-09T08:16:13.247Z,101695.28
2022-10-09T08:18:40.062Z,101701.06
2022-10-09T08:21:12.564Z,101707.13
2022-10-09T08:23:39.346Z,101709.34
2022-10-09T08:26:16.046Z,101707.88
2022-10-09T08:28:43.143Z,101705.44
2022-10-09T08:31:14.463Z,101697.13
2022-10-09T08:33:41.309Z,101700.44
2022-10-09T08:36:10.201Z,101700.69
2022-10-09T08:38:47.102Z,101702.16
2022-10-09T08:41:41.923Z,101707.66
2022-10-09T08:44:26.435Z,101705.19
2022-10-09T08:47:29.974Z,101709.06
2022-10-09T08:50:25.270Z,101705.75
2022-10-09T08:53:05.385Z,101700.19
2022-10-09T08:55:40.202Z,101703.53
2022-10-09T08:58:07.040Z,101695.44
2022-10-09T09:00:44.550Z,101691.31
2022-10-09T09:03:33.008Z,101695.72
2022-10-09T09:06:32.038Z,101689.31
2022-10-09T09:09:05.164Z,101690.13
2022-10-09T09:11:32.035Z,101688.09
2022-10-09T09:14:31.035Z,101694.53
2022-10-09T09:17:15.550Z,101689.09
2022-10-09T09:20:04.186Z,101682.34
2022-10-09T09:22:32.329Z,101692.84
2022-10-09T09:25:00.582Z,101688.25
2022-10-09T09:27:33.121Z,101684.69
2022-10-09T09:30:14.671Z,101684.28
2022-10-09T09:32:54.563Z,101675.19
2022-10-09T09:35:37.442Z,101680.59
2022-10-09T09:38:04.093Z,101679.16
2022-10-09T09:40:37.109Z,101682.22
2022-10-09T09:43:15.494Z,101677.56
2022-10-09T09:45:44.300Z,101676.63
2022-10-09T09:48:20.821Z,101670.53
2022-10-09T09:51:10.351Z,101668.75
2022-10-09T09:53:43.377Z,101672.75
2022-10-09T09:56:10.435Z,101661.47
2022-10-09T09:58:40.165Z,101651.44
2022-10-09T10:01:07.763Z,101661.03
2022-10-09T10:03:36.438Z,101647.50
2022-10-09T10:06:03.700Z,101639.63
2022-10-09T10:08:34.557Z,101644.00
2022-10-09T10:11:07.288Z,101631.38
2022-10-09T10:13:45.903Z,101628.19
2022-10-09T10:16:22.823Z,101620.25
2022-10-09T10:18:49.801Z,101620.78
2022-10-09T10:21:19.718Z,101617.25
2022-10-09T10:23:46.162Z,101616.84
2022-10-09T10:26:25.688Z,101607.00
2022-10-09T10:28:54.860Z,101608.03
2022-10-09T10:31:35.420Z,101600.25
2022-10-09T10:34:05.480Z,101604.91
2022-10-09T10:36:33.740Z,101607.25
2022-10-09T10:39:11.158Z,101606.41
2022-10-09T10:41:43.165Z,101594.41
2022-10-09T10:44:22.497Z,101587.38
2022-10-09T10:46:54.715Z,101589.88
2022-10-09T10:49:23.082Z,101587.75
2022-10-09T10:52:40.126Z,101583.13
2022-10-09T10:55:26.686Z,101577.81
2022-10-09T10:58:12.584Z,101582.19
2022-10-09T11:00:49.108Z,101576.09
2022-10-09T11:03:28.229Z,101574.19
2022-10-09T11:06:07.303Z,101569.75
2022-10-09T11:08:45.988Z,101572.63
2022-10-09T11:11:27.180Z,101567.53
2022-10-09T11:14:08.090Z,101565.44
2022-10-09T11:16:40.240Z,101551.19
2022-10-09T11:19:39.542Z,101557.22
2022-10-09T11:22:28.995Z,101550.13
2022-10-09T11:25:15.827Z,101546.34
2022-10-09T11:28:04.788Z,101548.19
2022-10-09T11:30:41.284Z,101543.53
2022-10-09T11:33:24.025Z,101546.22
2022-10-09T11:35:58.985Z,101540.41
2022-10-09T11:38:38.039Z,101539.66
2022-10-09T11:41:07.494Z,101537.44
2022-10-09T11:44:01.757Z,101532.78
2022-10-09T11:46:50.098Z,101529.00
2022-10-09T11:49:25.401Z,101525.28
2022-10-09T11:51:59.973Z,101518.00
2022-10-09T11:54:27.707Z,101521.31
2022-10-09T11:56:58.817Z,101520.88
2022-10-09T11:59:35.990Z,101507.72
2022-10-09T12:02:26.220Z,101500.50
2022-10-09T12:04:55.482Z,101497.13
2022-10-09T12:07:41.202Z,101485.59
2022-10-09T12:10:33.475Z,101480.69
2022-10-09T12:13:04.409Z,101487.06
2022-10-09T12:15:52.427Z,101486.91
2022-10-09T12:18:30.718Z,101475.03
2022-10-09T12:21:01.399Z,101473.00
2022-10-09T12:23:32.170Z,101467.53
2022-10-09T12:26:01.534Z,101463.88
2022-10-09T12:28:37.767Z,101455.94
2022-10-09T12:31:15.506Z,101455.09
2022-10-09T12:33:51.405Z,101451.59
2022-10-09T12:36:27.154Z,101451.84
2022-10-09T12:38:54.802Z,101446.34
2022-10-09T12:41:27.758Z,101447.13
2022-10-09T12:43:56.667Z,101449.97
2022-10-09T12:46:30.426Z,101447.22
2022-10-09T12:48:58.540Z,101441.53
2022-10-09T12:51:28.157Z,101430.00
2022-10-09T12:53:54.976Z,101428.31
2022-10-09T12:56:35.805Z,101417.09
2022-10-09T12:59:03.097Z,101410.88
2022-10-09T13:01:30.997Z,101416.06
2022-10-09T13:04:04.157Z,101402.59
2022-10-09T13:06:44.078Z,101402.00
2022-10-09T13:09:38.918Z,101398.19
2022-10-09T13:12:22.809Z,101381.44
2022-10-09T13:14:53.289Z,101391.72
2022-10-09T13:20:12.599Z,101382.28
2022-10-09T13:22:39.746Z,101381.50
2022-10-09T13:25:06.985Z,101385.50
2022-10-09T13:27:38.122Z,101382.00
2022-10-09T13:30:06.218Z,101386.31
2022-10-09T13:32:32.754Z,101377.50
2022-10-09T13:34:59.379Z,101367.66
2022-10-09T13:37:27.280Z,101374.91
2022-10-09T13:39:56.200Z,101364.69
2022-10-09T13:42:25.930Z,101356.41
2022-10-09T13:44:53.364Z,101361.59
2022-10-09T13:47:24.226Z,101350.44
2022-10-09T13:49:52.007Z,101354.50
2022-10-09T13:52:18.724Z,101356.22
2022-10-09T13:54:45.419Z,101346.75
2022-10-09T13:57:12.069Z,101346.75
2022-10-09T13:59:39.439Z,101343.16
2022-10-09T14:02:06.136Z,101333.53
2022-10-09T14:04:33.085Z,101332.66
2022-10-09T14:06:59.613Z,101330.84
2022-10-09T14:09:26.725Z,101332.91
2022-10-09T14:11:53.751Z,101340.78
2022-10-09T14:14:22.282Z,101333.19
2022-10-09T14:16:49.113Z,101323.19
2022-10-09T14:19:15.627Z,101323.50
2022-10-09T14:21:42.182Z,101322.84
2022-10-09T14:24:08.745Z,101327.50
2022-10-09T14:26:35.442Z,101324.06
2022-10-09T14:29:02.951Z,101319.56
2022-10-09T14:31:30.244Z,101319.91
2022-10-09T14:33:58.789Z,101310.72
2022-10-09T14:36:26.306Z,101315.34
2022-10-09T14:38:53.010Z,101308.84
2022-10-09T14:41:20.004Z,101310.56
2022-10-09T14:43:47.870Z,101295.78
2022-10-09T14:46:17.257Z,101300.47
2022-10-09T14:48:45.995Z,101296.69
2022-10-09T14:51:15.356Z,101284.34
2022-10-09T14:53:42.658Z,101288.31
2022-10-09T14:56:15.185Z,101282.44
2022-10-09T14:58:42.842Z,101280.81
2022-10-09T15:01:14.342Z,101276.94
2022-10-09T15:03:40.978Z,101276.66
2022-10-09T15:06:09.526Z,101268.41
2022-10-09T15:08:38.026Z,101271.78
2022-10-09T15:11:05.070Z,101264.75
2022-10-09T15:13:34.911Z,101256.75
2022-10-09T15:16:04.356Z,101248.03
2022-10-09T15:18:31.186Z,101249.34
2022-10-09T15:20:59.749Z,101249.34
2022-10-09T15:23:26.994Z,101236.00
2022-10-09T15:25:56.459Z,101239.19
2022-10-09T15:28:24.274Z,101235.75
2022-10-09T15:30:53.800Z,101223.09
2022-10-09T15:33:22.328Z,101220.44
2022-10-09T15:35:50.051Z,101223.59
2022-10-09T15:38:18.342Z,101226.03
2022-10-09T15:40:47.704Z,101214.53
2022-10-09T15:43:16.456Z,101215.19
2022-10-09T15:45:43.739Z,101216.41
2022-10-09T15:48:17.131Z,101210.63
2022-10-09T15:50:46.269Z,101203.53
2022-10-09T15:53:14.884Z,101199.13
2022-10-09T15:55:44.188Z,101193.25
2022-10-09T15:58:11.414Z,101189.38
2022-10-09T16:00:39.641Z,101194.63
2022-10-09T16:03:07.134Z,101193.56
2022-10-09T16:05:43.232Z,101186.16
2022-10-09T16:08:12.316Z,101190.16
2022-10-09T16:10:49.283Z,101180.91
2022-10-09T16:13:16.494Z,101186.69
2022-10-09T16:15:44.286Z,101186.19
2022-10-09T16:18:11.466Z,101184.59
2022-10-09T16:20:40.445Z,101181.34
2022-10-09T16:23:08.504Z,101176.88
2022-10-09T16:25:36.881Z,101176.91
2022-10-09T16:28:04.225Z,101177.88
2022-10-09T16:30:32.220Z,101171.22
2022-10-09T16:32:59.040Z,101169.81
2022-10-09T16:35:25.602Z,101170.78
2022-10-09T16:37:52.649Z,101167.22
2022-10-09T16:40:20.993Z,101164.97
2022-10-09T16:42:48.106Z,101163.03
2022-10-09T16:45:15.114Z,101159.75
2022-10-09T16:47:44.322Z,101150.13
2022-10-09T16:50:12.211Z,101158.53
2022-10-09T16:52:38.763Z,101148.16
2022-10-09T16:55:05.958Z,101149.47
2022-10-09T16:57:32.515Z,101150.63
2022-10-09T16:59:59.089Z,101153.56
2022-10-09T17:02:25.820Z,101151.53
2022-10-09T17:04:52.438Z,101144.88
2022-10-09T17:07:19.145Z,101136.19
2022-10-09T17:09:45.688Z,101143.41
2022-10-09T17:12:13.068Z,101137.97
2022-10-09T17:14:40.547Z,101131.06
2022-10-09T17:17:09.398Z,101130.97
2022-10-09T17:19:36.602Z,101127.69
2022-10-09T17:22:04.432Z,101128.47
2022-10-09T17:24:32.234Z,101129.09
2022-10-09T17:26:59.056Z,101125.28
2022-10-09T17:29:27.120Z,101123.69
2022-10-09T17:31:53.677Z,101129.44
2022-10-09T17:34:20.661Z,101127.28
2022-10-09T17:36:47.988Z,101116.97
2022-10-09T17:39:17.377Z,101129.72
2022-10-09T17:41:46.807Z,101126.50
2022-10-09T17:44:15.001Z,101122.09
2022-10-09T17:46:41.909Z,101120.28
2022-10-09T17:49:09.663Z,101126.66
2022-10-09T17:51:39.695Z,101125.56
2022-10-09T17:54:12.983Z,101124.66
2022-10-09T17:56:40.841Z,101117.03
2022-10-09T17:59:08.039Z,101111.75
2022-10-09T18:01:35.369Z,101121.25
2022-10-09T18:04:02.289Z,101108.81
2022-10-09T18:06:32.317Z,101107.84
2022-10-09T18:08:59.677Z,101114.56
2022-10-09T18:11:27.153Z,101105.69
2022-10-09T18:13:54.667Z,101106.69
2022-10-09T18:16:36.217Z,101097.03
2022-10-09T18:19:12.629Z,101094.66
2022-10-09T18:21:42.616Z,101095.84
2022-10-09T18:24:09.503Z,101097.59
2022-10-09T18:26:36.589Z,101090.06
2022-10-09T18:29:03.427Z,101092.81
2022-10-09T18:31:30.148Z,101091.59
2022-10-09T18:33:58.645Z,101088.66
2022-10-09T18:36:31.179Z,101089.75
2022-10-09T18:39:02.038Z,101084.31
2022-10-09T18:41:28.674Z,101076.88
2022-10-09T18:43:55.295Z,101074.81
2022-10-09T18:46:25.903Z,101072.50
2022-10-09T18:48:54.566Z,101057.56
2022-10-09T18:51:24.480Z,101056.59
2022-10-09T18:53:56.087Z,101057.22
2022-10-09T18:56:23.347Z,101057.81
2022-10-09T18:58:52.596Z,101063.66
2022-10-09T19:01:19.878Z,101055.66
2022-10-09T19:03:49.930Z,101051.84
2022-10-09T19:06:19.086Z,101055.22
2022-10-09T19:08:46.479Z,101049.94
2022-10-09T19:11:14.405Z,101055.81
2022-10-09T19:13:44.575Z,101057.50
2022-10-09T19:16:11.299Z,101060.41
2022-10-09T19:18:39.445Z,101056.44
2022-10-09T19:21:06.305Z,101051.75
2022-10-09T19:23:32.900Z,101059.97
2022-10-09T19:25:59.726Z,101047.34
2022-10-09T19:28:30.894Z,101042.47
2022-10-09T19:30:57.562Z,101045.28
2022-10-09T19:33:25.403Z,101046.84
2022-10-09T19:35:54.587Z,101045.94
2022-10-09T19:38:22.606Z,101040.25
2022-10-09T19:40:50.367Z,101040.38
2022-10-09T19:43:18.697Z,101036.16
2022-10-09T19:45:48.845Z,101041.16
2022-10-09T19:48:17.153Z,101042.66
2022-10-09T19:50:45.453Z,101045.13
2022-10-09T19:53:12.661Z,101046.75
2022-10-09T19:55:39.265Z,101046.00
2022-10-09T19:58:07.058Z,101048.91
2022-10-09T20:00:33.927Z,101050.06
2022-10-09T20:03:00.529Z,101045.63
2022-10-09T20:05:27.049Z,101048.22
2022-10-09T20:07:53.802Z,101045.59
2022-10-09T20:10:20.464Z,101036.47
2022-10-09T20:12:47.418Z,101040.50
2022-10-09T20:15:14.637Z,101035.97
2022-10-09T20:17:41.258Z,101035.94
2022-10-09T20:20:08.213Z,101029.56
2022-10-09T20:22:34.816Z,101028.19
2022-10-09T20:25:01.390Z,101033.78
2022-10-09T20:27:29.878Z,101039.31
2022-10-09T20:29:56.454Z,101040.97
2022-10-09T20:32:24.851Z,101035.34
2022-10-09T20:34:51.794Z,101036.88
2022-10-09T20:37:18.384Z,101026.34
2022-10-09T20:39:45.614Z,101035.59
2022-10-09T20:42:12.099Z,101027.25
2022-10-09T20:44:39.127Z,101032.91
2022-10-09T20:47:05.917Z,101020.72
2022-10-09T20:49:32.407Z,101022.34
2022-10-09T20:51:58.954Z,101019.59
2022-10-09T20:54:25.681Z,101023.75
2022-10-09T20:56:52.316Z,101020.31
2022-10-09T20:59:18.892Z,101020.00
2022-10-09T21:01:46.035Z,101018.22
2022-10-09T21:04:12.610Z,101018.16
2022-10-09T21:06:39.354Z,101010.47
2022-10-09T21:09:05.914Z,101013.44
2022-10-09T21:11:34.898Z,101000.53
2022-10-09T21:14:02.953Z,101003.69
2022-10-09T21:16:29.799Z,100994.19
2022-10-09T21:18:59.675Z,100994.59
2022-10-09T21:21:26.888Z,100985.59
2022-10-09T21:23:56.316Z,100981.78
2022-10-09T21:26:24.147Z,100974.84
2022-10-09T21:28:54.336Z,100984.00
2022-10-09T21:31:26.165Z,100978.63
2022-10-09T21:33:52.712Z,100979.50
2022-10-09T21:36:32.359Z,100977.94
2022-10-09T21:38:59.458Z,100967.66
2022-10-09T21:41:26.339Z,100973.13
2022-10-09T21:43:52.951Z,100971.88
2022-10-09T21:46:19.505Z,100969.88
2022-10-09T21:48:46.069Z,100978.22
2022-10-09T21:51:12.709Z,100970.25
2022-10-09T21:53:39.315Z,100975.41
2022-10-09T21:56:06.034Z,100974.00
2022-10-09T21:58:32.672Z,100967.28
2022-10-09T22:01:01.167Z,100958.25
2022-10-09T22:03:29.997Z,100967.72
2022-10-09T22:05:56.576Z,100958.41
2022-10-09T22:08:24.217Z,100956.09
2022-10-09T22:10:51.529Z,100949.75
2022-10-09T22:13:20.163Z,100956.72
2022-10-09T22:15:51.118Z,100950.69
2022-10-09T22:18:18.724Z,100945.19
2022-10-09T22:20:48.890Z,100939.59
2022-10-09T22:23:18.019Z,100929.03
2022-10-09T22:25:44.942Z,100930.00
2022-10-09T22:28:11.568Z,100927.69
2022-10-09T22:30:38.150Z,100924.16
2022-10-09T22:33:04.722Z,100921.59
2022-10-09T22:35:31.249Z,100923.47
2022-10-09T22:37:58.077Z,100917.75
2022-10-09T22:40:24.660Z,100920.53
2022-10-09T22:42:51.720Z,100914.69
2022-10-09T22:45:18.822Z,100919.00
2022-10-09T22:47:48.754Z,100907.63
2022-10-09T22:50:15.346Z,100911.56
2022-10-09T22:52:41.923Z,100906.53
2022-10-09T22:55:08.825Z,100900.94
2022-10-09T22:57:35.371Z,100901.78
2022-10-09T23:00:01.934Z,100895.22
2022-10-09T23:02:28.550Z,100898.41
2022-10-09T23:04:55.074Z,100892.22
2022-10-09T23:07:21.685Z,100884.16
2022-10-09T23:09:48.226Z,100881.72
2022-10-09T23:12:14.793Z,100881.69
2022-10-09T23:14:41.477Z,100876.31
2022-10-09T23:17:08.024Z,100873.97
2022-10-09T23:19:34.697Z,100878.72
2022-10-09T23:22:01.435Z,100876.78
2022-10-09T23:24:28.279Z,100865.59
2022-10-09T23:26:54.760Z,100869.50
2022-10-09T23:29:21.435Z,100867.22
2022-10-09T23:31:51.190Z,100872.56
2022-10-09T23:34:17.712Z,100867.03
2022-10-09T23:36:44.226Z,100864.81
2022-10-09T23:39:10.841Z,100862.50
2022-10-09T23:41:37.856Z,100849.97
2022-10-09T23:44:04.616Z,100852.72
2022-10-09T23:46:34.545Z,100846.59
2022-10-09T23:49:01.276Z,100841.72
2022-10-09T23:51:28.688Z,100834.69
2022-10-09T23:53:55.697Z,100835.63
2022-10-09T23:56:28.945Z,100830.00
2022-10-09T23:58:56.510Z,100835.25
